sensor_id;sensor_type;location;lat;lon;timestamp;P1;durP1;ratioP1;P2;durP2;ratioP2
23567;SDS011;11962;50.838;4.430;2024-02-26T00:00:28;6.68;;;2.10;;
23567;SDS011;11962;50.838;4.430;2024-02-26T00:02:55;4.13;;;1.95;;
23567;SDS011;11962;50.838;4.430;2024-02-26T00:05:21;2.95;;;1.90;;
23567;SDS011;11962;50.838;4.430;2024-02-26T00:07:47;5.45;;;1.77;;
23567;SDS011;11962;50.838;4.430;2024-02-26T00:10:13;8.63;;;1.70;;
23567;SDS011;11962;50.838;4.430;2024-02-26T00:12:39;4.28;;;1.90;;
23567;SDS011;11962;50.838;4.430;2024-02-26T00:15:05;10.45;;;1.90;;
23567;SDS011;11962;50.838;4.430;2024-02-26T00:17:34;2.95;;;2.10;;
23567;SDS011;11962;50.838;4.430;2024-02-26T00:20:00;4.78;;;1.95;;
23567;SDS011;11962;50.838;4.430;2024-02-26T00:22:29;6.05;;;1.90;;
23567;SDS011;11962;50.838;4.430;2024-02-26T00:24:55;4.18;;;1.80;;
23567;SDS011;11962;50.838;4.430;2024-02-26T00:27:21;4.30;;;1.88;;
23567;SDS011;11962;50.838;4.430;2024-02-26T00:29:47;5.55;;;2.35;;
23567;SDS011;11962;50.838;4.430;2024-02-26T00:32:12;4.40;;;2.05;;
23567;SDS011;11962;50.838;4.430;2024-02-26T00:34:38;6.10;;;2.53;;
23567;SDS011;11962;50.838;4.430;2024-02-26T00:37:04;3.88;;;2.08;;
23567;SDS011;11962;50.838;4.430;2024-02-26T00:39:29;7.10;;;2.47;;
23567;SDS011;11962;50.838;4.430;2024-02-26T00:41:55;2.85;;;1.70;;
23567;SDS011;11962;50.838;4.430;2024-02-26T00:44:21;5.05;;;2.08;;
23567;SDS011;11962;50.838;4.430;2024-02-26T00:46:46;4.85;;;2.00;;
23567;SDS011;11962;50.838;4.430;2024-02-26T00:49:12;2.88;;;1.75;;
23567;SDS011;11962;50.838;4.430;2024-02-26T00:51:37;2.92;;;1.98;;
23567;SDS011;11962;50.838;4.430;2024-02-26T00:54:03;2.28;;;1.88;;
23567;SDS011;11962;50.838;4.430;2024-02-26T00:56:29;3.33;;;1.80;;
23567;SDS011;11962;50.838;4.430;2024-02-26T00:58:54;3.13;;;1.52;;
23567;SDS011;11962;50.838;4.430;2024-02-26T01:01:20;2.53;;;1.77;;
23567;SDS011;11962;50.838;4.430;2024-02-26T01:03:46;2.38;;;1.75;;
23567;SDS011;11962;50.838;4.430;2024-02-26T01:06:11;2.50;;;1.80;;
23567;SDS011;11962;50.838;4.430;2024-02-26T01:08:37;3.47;;;1.85;;
23567;SDS011;11962;50.838;4.430;2024-02-26T01:11:03;3.05;;;1.67;;
23567;SDS011;11962;50.838;4.430;2024-02-26T01:13:29;6.28;;;1.85;;
23567;SDS011;11962;50.838;4.430;2024-02-26T01:15:54;3.45;;;1.75;;
23567;SDS011;11962;50.838;4.430;2024-02-26T01:18:20;8.75;;;2.00;;
23567;SDS011;11962;50.838;4.430;2024-02-26T01:20:46;2.95;;;1.80;;
23567;SDS011;11962;50.838;4.430;2024-02-26T01:23:12;7.60;;;2.00;;
23567;SDS011;11962;50.838;4.430;2024-02-26T01:25:38;6.45;;;1.95;;
23567;SDS011;11962;50.838;4.430;2024-02-26T01:28:04;3.25;;;2.22;;
23567;SDS011;11962;50.838;4.430;2024-02-26T01:30:30;4.50;;;1.98;;
23567;SDS011;11962;50.838;4.430;2024-02-26T01:32:56;5.65;;;2.55;;
23567;SDS011;11962;50.838;4.430;2024-02-26T01:35:22;4.32;;;2.00;;
23567;SDS011;11962;50.838;4.430;2024-02-26T01:37:48;4.97;;;2.00;;
23567;SDS011;11962;50.838;4.430;2024-02-26T01:40:14;3.58;;;1.85;;
23567;SDS011;11962;50.838;4.430;2024-02-26T01:42:44;5.68;;;1.90;;
23567;SDS011;11962;50.838;4.430;2024-02-26T01:45:12;8.18;;;2.30;;
23567;SDS011;11962;50.838;4.430;2024-02-26T01:47:41;4.85;;;1.80;;
23567;SDS011;11962;50.838;4.430;2024-02-26T01:50:07;2.05;;;1.40;;
23567;SDS011;11962;50.838;4.430;2024-02-26T01:52:33;10.70;;;2.20;;
23567;SDS011;11962;50.838;4.430;2024-02-26T01:55:00;6.60;;;2.03;;
23567;SDS011;11962;50.838;4.430;2024-02-26T01:57:27;3.17;;;1.70;;
23567;SDS011;11962;50.838;4.430;2024-02-26T01:59:53;1.67;;;1.33;;
23567;SDS011;11962;50.838;4.430;2024-02-26T02:02:20;2.25;;;1.42;;
23567;SDS011;11962;50.838;4.430;2024-02-26T02:04:45;4.22;;;1.60;;
23567;SDS011;11962;50.838;4.430;2024-02-26T02:07:11;6.93;;;1.90;;
23567;SDS011;11962;50.838;4.430;2024-02-26T02:09:38;3.00;;;1.60;;
23567;SDS011;11962;50.838;4.430;2024-02-26T02:12:03;1.90;;;1.60;;
23567;SDS011;11962;50.838;4.430;2024-02-26T02:14:30;7.35;;;1.55;;
23567;SDS011;11962;50.838;4.430;2024-02-26T02:16:55;3.40;;;1.30;;
23567;SDS011;11962;50.838;4.430;2024-02-26T02:19:21;3.95;;;1.60;;
23567;SDS011;11962;50.838;4.430;2024-02-26T02:21:47;2.88;;;1.40;;
23567;SDS011;11962;50.838;4.430;2024-02-26T02:24:13;10.90;;;2.25;;
23567;SDS011;11962;50.838;4.430;2024-02-26T02:26:38;6.47;;;1.50;;
23567;SDS011;11962;50.838;4.430;2024-02-26T02:29:04;1.50;;;1.40;;
23567;SDS011;11962;50.838;4.430;2024-02-26T02:31:31;6.13;;;1.65;;
23567;SDS011;11962;50.838;4.430;2024-02-26T02:33:57;3.10;;;1.67;;
23567;SDS011;11962;50.838;4.430;2024-02-26T02:36:23;8.48;;;1.98;;
23567;SDS011;11962;50.838;4.430;2024-02-26T02:38:49;2.85;;;1.70;;
23567;SDS011;11962;50.838;4.430;2024-02-26T02:41:16;2.10;;;1.27;;
23567;SDS011;11962;50.838;4.430;2024-02-26T02:43:41;3.33;;;1.75;;
23567;SDS011;11962;50.838;4.430;2024-02-26T02:46:07;1.60;;;1.40;;
23567;SDS011;11962;50.838;4.430;2024-02-26T02:48:33;2.90;;;1.67;;
23567;SDS011;11962;50.838;4.430;2024-02-26T02:50:58;2.63;;;1.60;;
23567;SDS011;11962;50.838;4.430;2024-02-26T02:53:24;2.75;;;1.80;;
23567;SDS011;11962;50.838;4.430;2024-02-26T02:55:49;2.85;;;1.65;;
23567;SDS011;11962;50.838;4.430;2024-02-26T02:58:15;3.60;;;1.70;;
23567;SDS011;11962;50.838;4.430;2024-02-26T03:00:41;3.63;;;1.73;;
23567;SDS011;11962;50.838;4.430;2024-02-26T03:03:07;5.35;;;2.10;;
23567;SDS011;11962;50.838;4.430;2024-02-26T03:05:32;2.83;;;1.80;;
23567;SDS011;11962;50.838;4.430;2024-02-26T03:07:58;3.40;;;2.00;;
23567;SDS011;11962;50.838;4.430;2024-02-26T03:10:24;3.85;;;1.52;;
23567;SDS011;11962;50.838;4.430;2024-02-26T03:12:50;6.68;;;2.58;;
23567;SDS011;11962;50.838;4.430;2024-02-26T03:15:15;3.55;;;1.77;;
23567;SDS011;11962;50.838;4.430;2024-02-26T03:17:41;2.15;;;1.77;;
23567;SDS011;11962;50.838;4.430;2024-02-26T03:20:07;4.90;;;1.80;;
23567;SDS011;11962;50.838;4.430;2024-02-26T03:22:34;3.20;;;1.80;;
23567;SDS011;11962;50.838;4.430;2024-02-26T03:25:00;3.50;;;2.08;;
23567;SDS011;11962;50.838;4.430;2024-02-26T03:27:26;3.35;;;1.58;;
23567;SDS011;11962;50.838;4.430;2024-02-26T03:29:52;7.00;;;1.98;;
23567;SDS011;11962;50.838;4.430;2024-02-26T03:32:18;3.70;;;2.40;;
23567;SDS011;11962;50.838;4.430;2024-02-26T03:34:43;4.00;;;2.20;;
23567;SDS011;11962;50.838;4.430;2024-02-26T03:37:09;5.63;;;1.90;;
23567;SDS011;11962;50.838;4.430;2024-02-26T03:39:36;4.35;;;2.00;;
23567;SDS011;11962;50.838;4.430;2024-02-26T03:42:02;5.03;;;2.20;;
23567;SDS011;11962;50.838;4.430;2024-02-26T03:44:28;4.63;;;2.05;;
23567;SDS011;11962;50.838;4.430;2024-02-26T03:46:53;5.13;;;1.85;;
23567;SDS011;11962;50.838;4.430;2024-02-26T03:49:19;2.17;;;1.98;;
23567;SDS011;11962;50.838;4.430;2024-02-26T03:51:45;3.35;;;2.00;;
23567;SDS011;11962;50.838;4.430;2024-02-26T03:54:10;4.88;;;2.30;;
23567;SDS011;11962;50.838;4.430;2024-02-26T03:56:36;6.18;;;2.08;;
23567;SDS011;11962;50.838;4.430;2024-02-26T03:59:01;3.92;;;2.20;;
23567;SDS011;11962;50.838;4.430;2024-02-26T04:01:27;4.47;;;2.15;;
23567;SDS011;11962;50.838;4.430;2024-02-26T04:03:53;5.15;;;2.20;;
23567;SDS011;11962;50.838;4.430;2024-02-26T04:06:19;3.22;;;2.35;;
23567;SDS011;11962;50.838;4.430;2024-02-26T04:08:46;5.80;;;2.40;;
23567;SDS011;11962;50.838;4.430;2024-02-26T04:11:12;5.18;;;2.60;;
23567;SDS011;11962;50.838;4.430;2024-02-26T04:13:38;4.93;;;2.88;;
23567;SDS011;11962;50.838;4.430;2024-02-26T04:16:06;3.22;;;2.80;;
23567;SDS011;11962;50.838;4.430;2024-02-26T04:18:32;7.18;;;2.97;;
23567;SDS011;11962;50.838;4.430;2024-02-26T04:20:58;4.88;;;3.17;;
23567;SDS011;11962;50.838;4.430;2024-02-26T04:23:24;3.83;;;3.20;;
23567;SDS011;11962;50.838;4.430;2024-02-26T04:25:50;11.70;;;3.97;;
23567;SDS011;11962;50.838;4.430;2024-02-26T04:28:15;6.53;;;4.50;;
23567;SDS011;11962;50.838;4.430;2024-02-26T04:30:41;9.23;;;4.25;;
23567;SDS011;11962;50.838;4.430;2024-02-26T04:33:07;5.60;;;4.47;;
23567;SDS011;11962;50.838;4.430;2024-02-26T04:35:33;7.93;;;4.53;;
23567;SDS011;11962;50.838;4.430;2024-02-26T04:38:00;5.40;;;4.35;;
23567;SDS011;11962;50.838;4.430;2024-02-26T04:40:26;7.10;;;4.38;;
23567;SDS011;11962;50.838;4.430;2024-02-26T04:42:51;7.95;;;4.97;;
23567;SDS011;11962;50.838;4.430;2024-02-26T04:45:17;7.63;;;4.78;;
23567;SDS011;11962;50.838;4.430;2024-02-26T04:47:43;8.77;;;4.97;;
23567;SDS011;11962;50.838;4.430;2024-02-26T04:50:08;6.50;;;4.97;;
23567;SDS011;11962;50.838;4.430;2024-02-26T04:52:34;8.45;;;5.22;;
23567;SDS011;11962;50.838;4.430;2024-02-26T04:55:01;10.00;;;4.97;;
23567;SDS011;11962;50.838;4.430;2024-02-26T04:57:27;7.05;;;4.80;;
23567;SDS011;11962;50.838;4.430;2024-02-26T04:59:53;7.93;;;5.30;;
23567;SDS011;11962;50.838;4.430;2024-02-26T05:02:18;7.05;;;5.00;;
23567;SDS011;11962;50.838;4.430;2024-02-26T05:04:44;7.15;;;5.40;;
23567;SDS011;11962;50.838;4.430;2024-02-26T05:07:10;7.70;;;5.95;;
23567;SDS011;11962;50.838;4.430;2024-02-26T05:09:37;8.85;;;6.15;;
23567;SDS011;11962;50.838;4.430;2024-02-26T05:12:03;10.75;;;6.05;;
23567;SDS011;11962;50.838;4.430;2024-02-26T05:14:29;10.23;;;7.00;;
23567;SDS011;11962;50.838;4.430;2024-02-26T05:16:54;11.30;;;6.40;;
23567;SDS011;11962;50.838;4.430;2024-02-26T05:19:21;10.18;;;7.30;;
23567;SDS011;11962;50.838;4.430;2024-02-26T05:21:46;11.40;;;8.25;;
23567;SDS011;11962;50.838;4.430;2024-02-26T05:24:14;13.68;;;8.70;;
23567;SDS011;11962;50.838;4.430;2024-02-26T05:26:42;11.52;;;8.00;;
23567;SDS011;11962;50.838;4.430;2024-02-26T05:29:08;13.85;;;8.85;;
23567;SDS011;11962;50.838;4.430;2024-02-26T05:31:34;13.85;;;8.40;;
23567;SDS011;11962;50.838;4.430;2024-02-26T05:33:59;13.95;;;8.73;;
23567;SDS011;11962;50.838;4.430;2024-02-26T05:36:25;15.73;;;10.27;;
23567;SDS011;11962;50.838;4.430;2024-02-26T05:38:53;16.10;;;10.23;;
23567;SDS011;11962;50.838;4.430;2024-02-26T05:41:19;16.27;;;11.10;;
23567;SDS011;11962;50.838;4.430;2024-02-26T05:43:51;16.13;;;11.27;;
23567;SDS011;11962;50.838;4.430;2024-02-26T05:46:20;22.10;;;12.32;;
23567;SDS011;11962;50.838;4.430;2024-02-26T05:48:51;19.38;;;12.75;;
23567;SDS011;11962;50.838;4.430;2024-02-26T05:51:17;23.80;;;13.80;;
23567;SDS011;11962;50.838;4.430;2024-02-26T05:53:43;22.20;;;13.68;;
23567;SDS011;11962;50.838;4.430;2024-02-26T05:56:08;23.40;;;14.20;;
23567;SDS011;11962;50.838;4.430;2024-02-26T05:58:34;20.38;;;14.38;;
23567;SDS011;11962;50.838;4.430;2024-02-26T06:01:00;24.80;;;14.73;;
23567;SDS011;11962;50.838;4.430;2024-02-26T06:03:26;21.33;;;14.73;;
23567;SDS011;11962;50.838;4.430;2024-02-26T06:05:52;25.40;;;15.45;;
23567;SDS011;11962;50.838;4.430;2024-02-26T06:08:18;25.02;;;15.55;;
23567;SDS011;11962;50.838;4.430;2024-02-26T06:10:43;26.73;;;15.30;;
23567;SDS011;11962;50.838;4.430;2024-02-26T06:13:09;21.33;;;14.85;;
23567;SDS011;11962;50.838;4.430;2024-02-26T06:15:35;23.77;;;15.98;;
23567;SDS011;11962;50.838;4.430;2024-02-26T06:18:01;21.40;;;15.32;;
23567;SDS011;11962;50.838;4.430;2024-02-26T06:20:26;23.00;;;14.93;;
23567;SDS011;11962;50.838;4.430;2024-02-26T06:22:52;22.90;;;14.68;;
23567;SDS011;11962;50.838;4.430;2024-02-26T06:25:18;20.83;;;15.07;;
23567;SDS011;11962;50.838;4.430;2024-02-26T06:27:43;21.60;;;16.00;;
23567;SDS011;11962;50.838;4.430;2024-02-26T06:30:09;22.55;;;14.98;;
23567;SDS011;11962;50.838;4.430;2024-02-26T06:32:36;22.40;;;15.05;;
23567;SDS011;11962;50.838;4.430;2024-02-26T06:35:02;19.67;;;14.95;;
23567;SDS011;11962;50.838;4.430;2024-02-26T06:37:33;21.35;;;14.77;;
23567;SDS011;11962;50.838;4.430;2024-02-26T06:40:00;21.60;;;14.93;;
23567;SDS011;11962;50.838;4.430;2024-02-26T06:42:28;20.10;;;14.82;;
23567;SDS011;11962;50.838;4.430;2024-02-26T06:44:55;20.95;;;15.00;;
23567;SDS011;11962;50.838;4.430;2024-02-26T06:47:21;21.50;;;15.30;;
23567;SDS011;11962;50.838;4.430;2024-02-26T06:49:46;20.20;;;14.15;;
23567;SDS011;11962;50.838;4.430;2024-02-26T06:52:12;22.67;;;15.10;;
23567;SDS011;11962;50.838;4.430;2024-02-26T06:54:38;22.23;;;15.40;;
23567;SDS011;11962;50.838;4.430;2024-02-26T06:57:03;20.10;;;15.07;;
23567;SDS011;11962;50.838;4.430;2024-02-26T06:59:29;29.05;;;16.10;;
23567;SDS011;11962;50.838;4.430;2024-02-26T07:01:55;20.52;;;15.35;;
23567;SDS011;11962;50.838;4.430;2024-02-26T07:04:20;22.90;;;15.95;;
23567;SDS011;11962;50.838;4.430;2024-02-26T07:06:46;19.85;;;15.02;;
23567;SDS011;11962;50.838;4.430;2024-02-26T07:09:12;25.15;;;15.98;;
23567;SDS011;11962;50.838;4.430;2024-02-26T07:11:38;19.08;;;14.80;;
23567;SDS011;11962;50.838;4.430;2024-02-26T07:14:11;21.38;;;16.50;;
23567;SDS011;11962;50.838;4.430;2024-02-26T07:16:37;21.58;;;15.05;;
23567;SDS011;11962;50.838;4.430;2024-02-26T07:19:03;20.10;;;15.05;;
23567;SDS011;11962;50.838;4.430;2024-02-26T07:21:29;20.50;;;15.65;;
23567;SDS011;11962;50.838;4.430;2024-02-26T07:23:54;21.17;;;15.40;;
23567;SDS011;11962;50.838;4.430;2024-02-26T07:26:20;22.40;;;15.73;;
23567;SDS011;11962;50.838;4.430;2024-02-26T07:28:46;21.27;;;15.55;;
23567;SDS011;11962;50.838;4.430;2024-02-26T07:31:11;22.77;;;16.15;;
23567;SDS011;11962;50.838;4.430;2024-02-26T07:33:37;20.95;;;15.27;;
23567;SDS011;11962;50.838;4.430;2024-02-26T07:36:03;20.50;;;15.20;;
23567;SDS011;11962;50.838;4.430;2024-02-26T07:38:29;17.73;;;14.50;;
23567;SDS011;11962;50.838;4.430;2024-02-26T07:40:55;20.02;;;15.65;;
23567;SDS011;11962;50.838;4.430;2024-02-26T07:43:22;19.92;;;14.88;;
23567;SDS011;11962;50.838;4.430;2024-02-26T07:45:47;21.58;;;14.90;;
23567;SDS011;11962;50.838;4.430;2024-02-26T07:48:13;19.95;;;14.43;;
23567;SDS011;11962;50.838;4.430;2024-02-26T07:50:39;19.45;;;14.93;;
23567;SDS011;11962;50.838;4.430;2024-02-26T07:53:05;19.15;;;14.85;;
23567;SDS011;11962;50.838;4.430;2024-02-26T07:55:31;19.67;;;15.15;;
23567;SDS011;11962;50.838;4.430;2024-02-26T07:57:57;18.95;;;14.27;;
23567;SDS011;11962;50.838;4.430;2024-02-26T08:00:22;19.55;;;14.48;;
23567;SDS011;11962;50.838;4.430;2024-02-26T08:02:48;19.92;;;14.35;;
23567;SDS011;11962;50.838;4.430;2024-02-26T08:05:14;19.65;;;14.23;;
23567;SDS011;11962;50.838;4.430;2024-02-26T08:07:39;17.98;;;13.77;;
23567;SDS011;11962;50.838;4.430;2024-02-26T08:10:05;16.38;;;13.55;;
23567;SDS011;11962;50.838;4.430;2024-02-26T08:12:31;21.13;;;13.38;;
23567;SDS011;11962;50.838;4.430;2024-02-26T08:14:57;19.23;;;14.65;;
23567;SDS011;11962;50.838;4.430;2024-02-26T08:17:23;17.58;;;13.13;;
23567;SDS011;11962;50.838;4.430;2024-02-26T08:19:49;14.77;;;12.43;;
23567;SDS011;11962;50.838;4.430;2024-02-26T08:22:15;15.15;;;12.50;;
23567;SDS011;11962;50.838;4.430;2024-02-26T08:24:42;15.20;;;12.50;;
23567;SDS011;11962;50.838;4.430;2024-02-26T08:27:08;16.15;;;12.82;;
23567;SDS011;11962;50.838;4.430;2024-02-26T08:29:33;20.13;;;13.35;;
23567;SDS011;11962;50.838;4.430;2024-02-26T08:31:59;15.35;;;12.27;;
23567;SDS011;11962;50.838;4.430;2024-02-26T08:34:25;15.77;;;12.80;;
23567;SDS011;11962;50.838;4.430;2024-02-26T08:36:51;15.57;;;11.93;;
23567;SDS011;11962;50.838;4.430;2024-02-26T08:39:16;16.80;;;12.75;;
23567;SDS011;11962;50.838;4.430;2024-02-26T08:41:45;16.25;;;12.88;;
23567;SDS011;11962;50.838;4.430;2024-02-26T08:46:37;15.48;;;12.60;;
23567;SDS011;11962;50.838;4.430;2024-02-26T08:49:03;16.55;;;11.35;;
23567;SDS011;11962;50.838;4.430;2024-02-26T08:51:28;13.20;;;11.43;;
23567;SDS011;11962;50.838;4.430;2024-02-26T08:53:54;14.25;;;11.75;;
23567;SDS011;11962;50.838;4.430;2024-02-26T08:56:20;14.70;;;12.60;;
23567;SDS011;11962;50.838;4.430;2024-02-26T08:58:46;14.73;;;12.20;;
23567;SDS011;11962;50.838;4.430;2024-02-26T09:01:16;14.65;;;11.45;;
23567;SDS011;11962;50.838;4.430;2024-02-26T09:03:42;14.20;;;11.65;;
23567;SDS011;11962;50.838;4.430;2024-02-26T09:06:08;14.30;;;11.32;;
23567;SDS011;11962;50.838;4.430;2024-02-26T09:08:34;16.35;;;11.60;;
23567;SDS011;11962;50.838;4.430;2024-02-26T09:11:01;13.25;;;10.65;;
23567;SDS011;11962;50.838;4.430;2024-02-26T09:13:28;13.68;;;11.35;;
23567;SDS011;11962;50.838;4.430;2024-02-26T09:15:54;13.77;;;11.55;;
23567;SDS011;11962;50.838;4.430;2024-02-26T09:18:19;13.60;;;11.75;;
23567;SDS011;11962;50.838;4.430;2024-02-26T09:20:45;13.35;;;11.02;;
23567;SDS011;11962;50.838;4.430;2024-02-26T09:23:11;16.75;;;12.93;;
23567;SDS011;11962;50.838;4.430;2024-02-26T09:25:37;11.70;;;10.50;;
23567;SDS011;11962;50.838;4.430;2024-02-26T09:28:03;14.73;;;11.65;;
23567;SDS011;11962;50.838;4.430;2024-02-26T09:30:29;13.75;;;11.32;;
23567;SDS011;11962;50.838;4.430;2024-02-26T09:32:56;13.98;;;11.05;;
23567;SDS011;11962;50.838;4.430;2024-02-26T09:35:22;14.45;;;11.40;;
23567;SDS011;11962;50.838;4.430;2024-02-26T09:37:48;16.08;;;11.32;;
23567;SDS011;11962;50.838;4.430;2024-02-26T09:40:14;14.55;;;11.77;;
23567;SDS011;11962;50.838;4.430;2024-02-26T09:42:44;15.38;;;10.65;;
23567;SDS011;11962;50.838;4.430;2024-02-26T09:45:19;29.90;;;12.60;;
23567;SDS011;11962;50.838;4.430;2024-02-26T09:47:47;17.55;;;11.70;;
23567;SDS011;11962;50.838;4.430;2024-02-26T09:50:13;14.18;;;11.23;;
23567;SDS011;11962;50.838;4.430;2024-02-26T09:52:42;17.35;;;11.43;;
23567;SDS011;11962;50.838;4.430;2024-02-26T09:55:08;15.63;;;11.57;;
23567;SDS011;11962;50.838;4.430;2024-02-26T09:57:38;14.15;;;11.32;;
23567;SDS011;11962;50.838;4.430;2024-02-26T10:00:10;14.30;;;10.90;;
23567;SDS011;11962;50.838;4.430;2024-02-26T10:02:43;16.92;;;11.38;;
23567;SDS011;11962;50.838;4.430;2024-02-26T10:05:10;17.27;;;9.68;;
23567;SDS011;11962;50.838;4.430;2024-02-26T10:07:39;13.55;;;10.20;;
23567;SDS011;11962;50.838;4.430;2024-02-26T10:10:07;14.40;;;10.50;;
23567;SDS011;11962;50.838;4.430;2024-02-26T10:12:33;12.48;;;10.20;;
23567;SDS011;11962;50.838;4.430;2024-02-26T10:14:59;13.30;;;10.40;;
23567;SDS011;11962;50.838;4.430;2024-02-26T10:17:26;12.32;;;10.18;;
23567;SDS011;11962;50.838;4.430;2024-02-26T10:19:51;11.85;;;10.00;;
23567;SDS011;11962;50.838;4.430;2024-02-26T10:22:21;15.73;;;10.60;;
23567;SDS011;11962;50.838;4.430;2024-02-26T10:24:47;12.80;;;9.32;;
23567;SDS011;11962;50.838;4.430;2024-02-26T10:27:13;12.57;;;10.10;;
23567;SDS011;11962;50.838;4.430;2024-02-26T10:29:40;12.82;;;9.25;;
23567;SDS011;11962;50.838;4.430;2024-02-26T10:32:08;14.35;;;9.45;;
23567;SDS011;11962;50.838;4.430;2024-02-26T10:34:34;11.07;;;9.57;;
23567;SDS011;11962;50.838;4.430;2024-02-26T10:37:02;12.43;;;8.98;;
23567;SDS011;11962;50.838;4.430;2024-02-26T10:39:29;11.55;;;8.98;;
23567;SDS011;11962;50.838;4.430;2024-02-26T10:41:55;14.13;;;10.90;;
23567;SDS011;11962;50.838;4.430;2024-02-26T10:44:21;12.40;;;8.63;;
23567;SDS011;11962;50.838;4.430;2024-02-26T10:46:47;10.02;;;7.80;;
23567;SDS011;11962;50.838;4.430;2024-02-26T10:49:14;12.03;;;8.80;;
23567;SDS011;11962;50.838;4.430;2024-02-26T10:54:10;10.60;;;7.55;;
23567;SDS011;11962;50.838;4.430;2024-02-26T10:56:40;10.15;;;7.93;;
23567;SDS011;11962;50.838;4.430;2024-02-26T10:59:09;10.20;;;8.00;;
23567;SDS011;11962;50.838;4.430;2024-02-26T11:01:38;9.93;;;7.22;;
23567;SDS011;11962;50.838;4.430;2024-02-26T11:04:06;8.85;;;7.03;;
23567;SDS011;11962;50.838;4.430;2024-02-26T11:06:33;10.90;;;7.25;;
23567;SDS011;11962;50.838;4.430;2024-02-26T11:08:59;8.77;;;7.57;;
23567;SDS011;11962;50.838;4.430;2024-02-26T11:11:27;9.27;;;7.68;;
23567;SDS011;11962;50.838;4.430;2024-02-26T11:13:54;9.25;;;7.35;;
23567;SDS011;11962;50.838;4.430;2024-02-26T11:16:22;8.50;;;6.65;;
23567;SDS011;11962;50.838;4.430;2024-02-26T11:18:48;7.68;;;6.40;;
23567;SDS011;11962;50.838;4.430;2024-02-26T11:21:17;8.38;;;6.80;;
23567;SDS011;11962;50.838;4.430;2024-02-26T11:23:45;8.43;;;6.88;;
23567;SDS011;11962;50.838;4.430;2024-02-26T11:26:11;7.70;;;6.18;;
23567;SDS011;11962;50.838;4.430;2024-02-26T11:28:40;7.38;;;6.03;;
23567;SDS011;11962;50.838;4.430;2024-02-26T11:31:06;17.48;;;6.60;;
23567;SDS011;11962;50.838;4.430;2024-02-26T11:33:34;7.82;;;6.35;;
23567;SDS011;11962;50.838;4.430;2024-02-26T11:36:07;9.60;;;6.88;;
23567;SDS011;11962;50.838;4.430;2024-02-26T11:38:36;7.10;;;6.10;;
23567;SDS011;11962;50.838;4.430;2024-02-26T11:41:04;8.75;;;6.20;;
23567;SDS011;11962;50.838;4.430;2024-02-26T11:46:51;7.18;;;6.05;;
23567;SDS011;11962;50.838;4.430;2024-02-26T11:49:30;10.23;;;5.65;;
23567;SDS011;11962;50.838;4.430;2024-02-26T11:51:56;6.93;;;6.07;;
23567;SDS011;11962;50.838;4.430;2024-02-26T11:54:50;6.88;;;6.15;;
23567;SDS011;11962;50.838;4.430;2024-02-26T11:57:22;7.68;;;6.47;;
23567;SDS011;11962;50.838;4.430;2024-02-26T11:59:53;8.00;;;6.03;;
23567;SDS011;11962;50.838;4.430;2024-02-26T12:05:07;8.50;;;5.50;;
23567;SDS011;11962;50.838;4.430;2024-02-26T12:07:49;8.60;;;6.25;;
23567;SDS011;11962;50.838;4.430;2024-02-26T12:13:04;11.95;;;7.40;;
23567;SDS011;11962;50.838;4.430;2024-02-26T12:16:05;8.05;;;6.50;;
23567;SDS011;11962;50.838;4.430;2024-02-26T12:18:24;9.80;;;6.70;;
23567;SDS011;11962;50.838;4.430;2024-02-26T12:21:02;8.30;;;6.13;;
23567;SDS011;11962;50.838;4.430;2024-02-26T12:23:29;8.05;;;6.25;;
23567;SDS011;11962;50.838;4.430;2024-02-26T12:25:58;8.30;;;6.30;;
23567;SDS011;11962;50.838;4.430;2024-02-26T12:28:30;7.95;;;6.57;;
23567;SDS011;11962;50.838;4.430;2024-02-26T12:30:56;8.88;;;7.13;;
23567;SDS011;11962;50.838;4.430;2024-02-26T12:33:24;10.88;;;7.10;;
23567;SDS011;11962;50.838;4.430;2024-02-26T12:35:51;9.45;;;6.15;;
23567;SDS011;11962;50.838;4.430;2024-02-26T12:38:19;7.57;;;6.78;;
23567;SDS011;11962;50.838;4.430;2024-02-26T12:40:45;7.68;;;5.60;;
23567;SDS011;11962;50.838;4.430;2024-02-26T12:43:11;7.57;;;6.10;;
23567;SDS011;11962;50.838;4.430;2024-02-26T12:45:41;10.40;;;6.60;;
23567;SDS011;11962;50.838;4.430;2024-02-26T12:48:07;6.50;;;5.35;;
23567;SDS011;11962;50.838;4.430;2024-02-26T12:50:33;9.75;;;5.40;;
23567;SDS011;11962;50.838;4.430;2024-02-26T12:52:59;9.23;;;5.28;;
23567;SDS011;11962;50.838;4.430;2024-02-26T12:55:25;6.80;;;5.35;;
23567;SDS011;11962;50.838;4.430;2024-02-26T12:57:52;6.80;;;5.35;;
23567;SDS011;11962;50.838;4.430;2024-02-26T13:00:19;5.82;;;5.22;;
23567;SDS011;11962;50.838;4.430;2024-02-26T13:02:51;7.13;;;5.75;;
23567;SDS011;11962;50.838;4.430;2024-02-26T13:05:17;7.35;;;5.40;;
23567;SDS011;11962;50.838;4.430;2024-02-26T13:07:45;7.10;;;5.88;;
23567;SDS011;11962;50.838;4.430;2024-02-26T13:10:15;9.15;;;6.53;;
23567;SDS011;11962;50.838;4.430;2024-02-26T13:12:43;8.07;;;6.30;;
23567;SDS011;11962;50.838;4.430;2024-02-26T13:15:13;8.25;;;6.28;;
23567;SDS011;11962;50.838;4.430;2024-02-26T13:17:40;9.35;;;7.10;;
23567;SDS011;11962;50.838;4.430;2024-02-26T13:20:07;7.20;;;6.47;;
23567;SDS011;11962;50.838;4.430;2024-02-26T13:22:35;9.02;;;7.07;;
23567;SDS011;11962;50.838;4.430;2024-02-26T13:25:02;9.55;;;7.50;;
23567;SDS011;11962;50.838;4.430;2024-02-26T13:27:29;7.60;;;6.63;;
23567;SDS011;11962;50.838;4.430;2024-02-26T13:30:04;12.13;;;7.55;;
23567;SDS011;11962;50.838;4.430;2024-02-26T13:32:38;9.07;;;7.22;;
23567;SDS011;11962;50.838;4.430;2024-02-26T13:35:08;10.55;;;7.82;;
23567;SDS011;11962;50.838;4.430;2024-02-26T13:37:35;10.00;;;8.25;;
23567;SDS011;11962;50.838;4.430;2024-02-26T13:40:08;10.13;;;8.07;;
23567;SDS011;11962;50.838;4.430;2024-02-26T13:42:38;10.30;;;8.15;;
23567;SDS011;11962;50.838;4.430;2024-02-26T13:47:33;11.45;;;8.95;;
23567;SDS011;11962;50.838;4.430;2024-02-26T13:49:59;13.25;;;9.55;;
23567;SDS011;11962;50.838;4.430;2024-02-26T13:52:25;11.63;;;9.45;;
23567;SDS011;11962;50.838;4.430;2024-02-26T13:54:51;13.15;;;9.68;;
23567;SDS011;11962;50.838;4.430;2024-02-26T13:57:17;14.63;;;9.75;;
23567;SDS011;11962;50.838;4.430;2024-02-26T13:59:46;13.77;;;10.52;;
23567;SDS011;11962;50.838;4.430;2024-02-26T14:02:12;12.40;;;9.88;;
23567;SDS011;11962;50.838;4.430;2024-02-26T14:04:38;16.45;;;10.63;;
23567;SDS011;11962;50.838;4.430;2024-02-26T14:07:04;13.52;;;10.60;;
23567;SDS011;11962;50.838;4.430;2024-02-26T14:09:30;21.95;;;15.07;;
23567;SDS011;11962;50.838;4.430;2024-02-26T14:11:57;15.20;;;10.88;;
23567;SDS011;11962;50.838;4.430;2024-02-26T14:14:23;14.20;;;10.85;;
23567;SDS011;11962;50.838;4.430;2024-02-26T14:16:50;15.85;;;10.95;;
23567;SDS011;11962;50.838;4.430;2024-02-26T14:19:16;13.95;;;10.35;;
23567;SDS011;11962;50.838;4.430;2024-02-26T14:21:42;15.30;;;11.00;;
23567;SDS011;11962;50.838;4.430;2024-02-26T14:24:08;15.48;;;10.85;;
23567;SDS011;11962;50.838;4.430;2024-02-26T14:26:33;15.40;;;10.93;;
23567;SDS011;11962;50.838;4.430;2024-02-26T14:28:59;14.25;;;10.95;;
23567;SDS011;11962;50.838;4.430;2024-02-26T14:31:25;13.70;;;9.90;;
23567;SDS011;11962;50.838;4.430;2024-02-26T14:33:51;15.43;;;10.68;;
23567;SDS011;11962;50.838;4.430;2024-02-26T14:36:19;17.02;;;10.85;;
23567;SDS011;11962;50.838;4.430;2024-02-26T14:38:46;16.90;;;10.88;;
23567;SDS011;11962;50.838;4.430;2024-02-26T14:41:12;15.93;;;10.82;;
23567;SDS011;11962;50.838;4.430;2024-02-26T14:43:37;16.10;;;11.13;;
23567;SDS011;11962;50.838;4.430;2024-02-26T14:46:03;18.92;;;11.45;;
23567;SDS011;11962;50.838;4.430;2024-02-26T14:48:29;16.35;;;11.05;;